sensor_id;sensor_type;location;lat;lon;timestamp;pressure;altitude;pressure_sealevel;temperature;humidity
50105;BME280;47690;39.202;-77.198;2024-01-27T00:00:31;100225.47;;;19.85;52.08
50105;BME280;47690;39.202;-77.198;2024-01-27T00:03:01;100235.59;;;19.75;51.94
50105;BME280;47690;39.202;-77.198;2024-01-27T00:05:30;100242.00;;;19.70;52.12
50105;BME280;47690;39.202;-77.198;2024-01-27T00:08:02;100247.63;;;19.62;52.08
50105;BME280;47690;39.202;-77.198;2024-01-27T00:10:32;100250.56;;;19.56;52.39
50105;BME280;47690;39.202;-77.198;2024-01-27T00:13:01;100256.28;;;19.46;52.60
50105;BME280;47690;39.202;-77.198;2024-01-27T00:15:30;100257.50;;;19.39;52.88
50105;BME280;47690;39.202;-77.198;2024-01-27T00:18:01;100257.00;;;19.32;52.97
50105;BME280;47690;39.202;-77.198;2024-01-27T00:20:31;100266.06;;;19.25;53.35
50105;BME280;47690;39.202;-77.198;2024-01-27T00:23:01;100269.91;;;19.18;53.36
50105;BME280;47690;39.202;-77.198;2024-01-27T00:25:33;100273.75;;;19.10;53.52
50105;BME280;47690;39.202;-77.198;2024-01-27T00:28:04;100268.00;;;19.04;53.72
50105;BME280;47690;39.202;-77.198;2024-01-27T00:30:33;100271.03;;;18.94;53.81
50105;BME280;47690;39.202;-77.198;2024-01-27T00:33:04;100268.91;;;18.85;53.75
50105;BME280;47690;39.202;-77.198;2024-01-27T00:35:32;100270.13;;;18.78;54.10
50105;BME280;47690;39.202;-77.198;2024-01-27T00:38:02;100273.78;;;18.74;54.12
50105;BME280;47690;39.202;-77.198;2024-01-27T00:40:30;100271.56;;;18.66;54.43
50105;BME280;47690;39.202;-77.198;2024-01-27T00:43:02;100268.38;;;18.59;54.22
50105;BME280;47690;39.202;-77.198;2024-01-27T00:45:32;100268.72;;;18.53;54.48
50105;BME280;47690;39.202;-77.198;2024-01-27T00:48:03;100279.44;;;18.47;55.08
50105;BME280;47690;39.202;-77.198;2024-01-27T00:50:32;100279.66;;;18.42;54.50
50105;BME280;47690;39.202;-77.198;2024-01-27T00:53:04;100286.00;;;18.36;54.50
50105;BME280;47690;39.202;-77.198;2024-01-27T00:55:33;100291.50;;;18.30;54.89
50105;BME280;47690;39.202;-77.198;2024-01-27T00:58:02;100295.25;;;18.24;54.70
50105;BME280;47690;39.202;-77.198;2024-01-27T01:00:33;100298.22;;;18.17;55.06
50105;BME280;47690;39.202;-77.198;2024-01-27T01:03:02;100300.31;;;18.08;55.53
50105;BME280;47690;39.202;-77.198;2024-01-27T01:05:32;100305.78;;;18.02;55.40
50105;BME280;47690;39.202;-77.198;2024-01-27T01:08:00;100309.66;;;17.93;55.37
50105;BME280;47690;39.202;-77.198;2024-01-27T01:10:33;100313.50;;;17.84;55.70
50105;BME280;47690;39.202;-77.198;2024-01-27T01:13:02;100316.44;;;17.57;56.32
50105;BME280;47690;39.202;-77.198;2024-01-27T01:15:32;100316.19;;;17.43;57.02
50105;BME280;47690;39.202;-77.198;2024-01-27T01:18:00;100314.81;;;17.34;57.26
50105;BME280;47690;39.202;-77.198;2024-01-27T01:20:29;100315.97;;;17.27;57.60
50105;BME280;47690;39.202;-77.198;2024-01-27T01:22:59;100315.31;;;17.22;57.69
50105;BME280;47690;39.202;-77.198;2024-01-27T01:25:29;100310.31;;;17.17;57.81
50105;BME280;47690;39.202;-77.198;2024-01-27T01:27:58;100308.66;;;17.14;57.87
50105;BME280;47690;39.202;-77.198;2024-01-27T01:30:27;100314.22;;;17.27;57.05
50105;BME280;47690;39.202;-77.198;2024-01-27T01:32:57;100310.56;;;17.31;56.70
50105;BME280;47690;39.202;-77.198;2024-01-27T01:35:26;100320.84;;;17.34;56.35
50105;BME280;47690;39.202;-77.198;2024-01-27T01:37:54;100321.56;;;17.38;56.72
50105;BME280;47690;39.202;-77.198;2024-01-27T01:40:24;100321.56;;;17.38;56.55
50105;BME280;47690;39.202;-77.198;2024-01-27T01:42:52;100312.00;;;17.39;56.17
50105;BME280;47690;39.202;-77.198;2024-01-27T01:45:21;100319.09;;;17.35;56.27
50105;BME280;47690;39.202;-77.198;2024-01-27T01:47:49;100324.50;;;17.30;56.26
50105;BME280;47690;39.202;-77.198;2024-01-27T01:50:18;100329.13;;;17.24;56.07
50105;BME280;47690;39.202;-77.198;2024-01-27T01:52:48;100333.88;;;17.14;56.08
50105;BME280;47690;39.202;-77.198;2024-01-27T01:55:17;100329.00;;;17.04;56.38
50105;BME280;47690;39.202;-77.198;2024-01-27T01:57:45;100331.69;;;17.03;56.43
50105;BME280;47690;39.202;-77.198;2024-01-27T02:00:15;100339.50;;;17.03;56.23
50105;BME280;47690;39.202;-77.198;2024-01-27T02:02:44;100347.31;;;17.03;56.45
50105;BME280;47690;39.202;-77.198;2024-01-27T02:05:13;100341.25;;;17.02;56.83
50105;BME280;47690;39.202;-77.198;2024-01-27T02:07:42;100345.63;;;17.02;56.61
50105;BME280;47690;39.202;-77.198;2024-01-27T02:10:15;100346.47;;;17.01;56.22
50105;BME280;47690;39.202;-77.198;2024-01-27T02:12:45;100345.88;;;16.94;56.30
50105;BME280;47690;39.202;-77.198;2024-01-27T02:15:14;100347.91;;;16.87;56.62
50105;BME280;47690;39.202;-77.198;2024-01-27T02:17:42;100341.84;;;16.87;56.51
50105;BME280;47690;39.202;-77.198;2024-01-27T02:20:11;100340.81;;;16.91;56.14
50105;BME280;47690;39.202;-77.198;2024-01-27T02:22:40;100345.84;;;16.96;55.92
50105;BME280;47690;39.202;-77.198;2024-01-27T02:25:08;100348.25;;;17.00;55.76
50105;BME280;47690;39.202;-77.198;2024-01-27T02:27:37;100344.63;;;17.04;55.49
50105;BME280;47690;39.202;-77.198;2024-01-27T02:30:06;100347.13;;;17.08;55.74
50105;BME280;47690;39.202;-77.198;2024-01-27T02:32:35;100339.91;;;17.14;55.16
50105;BME280;47690;39.202;-77.198;2024-01-27T02:35:04;100337.91;;;17.21;54.80
50105;BME280;47690;39.202;-77.198;2024-01-27T02:37:33;100343.69;;;17.28;54.82
50105;BME280;47690;39.202;-77.198;2024-01-27T02:40:03;100352.16;;;17.33;55.20
50105;BME280;47690;39.202;-77.198;2024-01-27T02:42:33;100346.81;;;17.36;54.84
50105;BME280;47690;39.202;-77.198;2024-01-27T02:45:03;100342.31;;;17.40;54.90
50105;BME280;47690;39.202;-77.198;2024-01-27T02:47:33;100339.78;;;17.38;54.70
50105;BME280;47690;39.202;-77.198;2024-01-27T02:50:02;100344.00;;;17.41;54.39
50105;BME280;47690;39.202;-77.198;2024-01-27T02:52:33;100350.09;;;17.41;54.51
50105;BME280;47690;39.202;-77.198;2024-01-27T02:55:02;100343.97;;;17.42;54.06
50105;BME280;47690;39.202;-77.198;2024-01-27T02:57:32;100350.75;;;17.46;53.61
50105;BME280;47690;39.202;-77.198;2024-01-27T03:00:03;100355.75;;;17.51;53.38
50105;BME280;47690;39.202;-77.198;2024-01-27T03:02:33;100360.88;;;17.53;53.30
50105;BME280;47690;39.202;-77.198;2024-01-27T03:05:02;100362.59;;;17.54;53.07
50105;BME280;47690;39.202;-77.198;2024-01-27T03:07:32;100365.91;;;17.57;52.86
50105;BME280;47690;39.202;-77.198;2024-01-27T03:10:00;100355.41;;;17.59;52.94
50105;BME280;47690;39.202;-77.198;2024-01-27T03:12:31;100357.09;;;17.60;52.29
50105;BME280;47690;39.202;-77.198;2024-01-27T03:15:02;100350.09;;;17.62;52.11
50105;BME280;47690;39.202;-77.198;2024-01-27T03:17:31;100359.53;;;17.65;51.94
50105;BME280;47690;39.202;-77.198;2024-01-27T03:20:00;100369.81;;;17.68;51.73
50105;BME280;47690;39.202;-77.198;2024-01-27T03:22:31;100371.50;;;17.69;51.56
50105;BME280;47690;39.202;-77.198;2024-01-27T03:25:00;100377.47;;;17.71;51.80
50105;BME280;47690;39.202;-77.198;2024-01-27T03:27:32;100377.34;;;17.74;51.52
50105;BME280;47690;39.202;-77.198;2024-01-27T03:30:03;100376.28;;;17.78;51.29
50105;BME280;47690;39.202;-77.198;2024-01-27T03:32:34;100375.31;;;17.81;51.33
50105;BME280;47690;39.202;-77.198;2024-01-27T03:35:04;100373.53;;;17.83;51.36
50105;BME280;47690;39.202;-77.198;2024-01-27T03:37:33;100377.81;;;17.84;51.18
50105;BME280;47690;39.202;-77.198;2024-01-27T03:40:09;100373.44;;;17.84;50.80
50105;BME280;47690;39.202;-77.198;2024-01-27T03:42:38;100376.13;;;17.83;51.00
50105;BME280;47690;39.202;-77.198;2024-01-27T03:45:07;100379.31;;;17.69;51.57
50105;BME280;47690;39.202;-77.198;2024-01-27T03:47:36;100394.41;;;17.60;52.31
50105;BME280;47690;39.202;-77.198;2024-01-27T03:50:10;100399.81;;;17.56;52.48
50105;BME280;47690;39.202;-77.198;2024-01-27T03:52:39;100388.63;;;17.54;51.94
50105;BME280;47690;39.202;-77.198;2024-01-27T03:55:07;100388.69;;;17.52;52.06
50105;BME280;47690;39.202;-77.198;2024-01-27T03:57:36;100385.22;;;17.52;51.78
50105;BME280;47690;39.202;-77.198;2024-01-27T04:00:11;100386.34;;;17.67;51.00
50105;BME280;47690;39.202;-77.198;2024-01-27T04:02:41;100387.78;;;17.53;51.36
50105;BME280;47690;39.202;-77.198;2024-01-27T04:05:09;100394.88;;;17.50;51.44
50105;BME280;47690;39.202;-77.198;2024-01-27T04:07:41;100396.63;;;17.70;50.80
50105;BME280;47690;39.202;-77.198;2024-01-27T04:10:12;100399.88;;;17.75;50.60
50105;BME280;47690;39.202;-77.198;2024-01-27T04:12:42;100408.56;;;17.75;50.31
50105;BME280;47690;39.202;-77.198;2024-01-27T04:15:11;100417.22;;;17.76;50.66
50105;BME280;47690;39.202;-77.198;2024-01-27T04:17:40;100416.28;;;17.77;50.58
50105;BME280;47690;39.202;-77.198;2024-01-27T04:20:11;100419.81;;;17.76;50.46
50105;BME280;47690;39.202;-77.198;2024-01-27T04:22:39;100412.91;;;17.75;50.41
50105;BME280;47690;39.202;-77.198;2024-01-27T04:25:08;100408.63;;;17.74;50.41
50105;BME280;47690;39.202;-77.198;2024-01-27T04:27:38;100417.41;;;17.71;50.02
50105;BME280;47690;39.202;-77.198;2024-01-27T04:30:15;100418.28;;;17.72;49.82
50105;BME280;47690;39.202;-77.198;2024-01-27T04:32:46;100420.94;;;17.70;49.90
50105;BME280;47690;39.202;-77.198;2024-01-27T04:35:18;100418.44;;;17.67;49.93
50105;BME280;47690;39.202;-77.198;2024-01-27T04:37:48;100415.06;;;17.65;50.37
50105;BME280;47690;39.202;-77.198;2024-01-27T04:40:18;100418.56;;;17.64;50.03
50105;BME280;47690;39.202;-77.198;2024-01-27T04:42:46;100426.44;;;17.63;50.18
50105;BME280;47690;39.202;-77.198;2024-01-27T04:45:15;100431.75;;;17.61;50.02
50105;BME280;47690;39.202;-77.198;2024-01-27T04:47:44;100443.91;;;17.60;49.86
50105;BME280;47690;39.202;-77.198;2024-01-27T04:50:14;100436.22;;;17.57;50.05
50105;BME280;47690;39.202;-77.198;2024-01-27T04:52:43;100439.72;;;17.56;49.72
50105;BME280;47690;39.202;-77.198;2024-01-27T04:55:11;100444.94;;;17.56;49.94
50105;BME280;47690;39.202;-77.198;2024-01-27T04:57:40;100445.03;;;17.55;50.15
50105;BME280;47690;39.202;-77.198;2024-01-27T05:00:09;100447.63;;;17.55;50.03
50105;BME280;47690;39.202;-77.198;2024-01-27T05:02:44;100445.97;;;17.52;50.23
50105;BME280;47690;39.202;-77.198;2024-01-27T05:05:14;100445.06;;;17.53;50.44
50105;BME280;47690;39.202;-77.198;2024-01-27T05:07:42;100437.50;;;17.47;50.03
50105;BME280;47690;39.202;-77.198;2024-01-27T05:10:11;100434.13;;;17.45;50.29
50105;BME280;47690;39.202;-77.198;2024-01-27T05:12:41;100433.41;;;17.41;50.28
50105;BME280;47690;39.202;-77.198;2024-01-27T05:15:10;100434.56;;;17.34;50.15
50105;BME280;47690;39.202;-77.198;2024-01-27T05:17:40;100438.31;;;17.27;50.44
50105;BME280;47690;39.202;-77.198;2024-01-27T05:20:10;100447.28;;;17.19;50.38
50105;BME280;47690;39.202;-77.198;2024-01-27T05:22:39;100443.28;;;17.11;50.45
50105;BME280;47690;39.202;-77.198;2024-01-27T05:25:08;100447.84;;;17.05;50.53
50105;BME280;47690;39.202;-77.198;2024-01-27T05:27:38;100450.75;;;16.96;50.36
50105;BME280;47690;39.202;-77.198;2024-01-27T05:30:08;100451.09;;;16.87;50.16
50105;BME280;47690;39.202;-77.198;2024-01-27T05:32:37;100449.66;;;16.79;50.25
50105;BME280;47690;39.202;-77.198;2024-01-27T05:35:08;100468.06;;;16.73;50.58
50105;BME280;47690;39.202;-77.198;2024-01-27T05:37:39;100466.66;;;16.64;50.62
50105;BME280;47690;39.202;-77.198;2024-01-27T05:40:09;100461.81;;;16.55;50.35
50105;BME280;47690;39.202;-77.198;2024-01-27T05:42:38;100465.66;;;16.45;50.51
50105;BME280;47690;39.202;-77.198;2024-01-27T05:45:12;100459.88;;;16.36;50.76
50105;BME280;47690;39.202;-77.198;2024-01-27T05:47:41;100453.31;;;16.26;50.87
50105;BME280;47690;39.202;-77.198;2024-01-27T05:50:10;100462.22;;;16.19;50.73
50105;BME280;47690;39.202;-77.198;2024-01-27T05:52:39;100459.09;;;16.09;50.87
50105;BME280;47690;39.202;-77.198;2024-01-27T05:55:08;100461.13;;;16.01;50.96
50105;BME280;47690;39.202;-77.198;2024-01-27T05:57:38;100457.03;;;15.93;51.04
50105;BME280;47690;39.202;-77.198;2024-01-27T06:00:07;100456.41;;;15.85;51.04
50105;BME280;47690;39.202;-77.198;2024-01-27T06:02:38;100455.03;;;15.75;51.15
50105;BME280;47690;39.202;-77.198;2024-01-27T06:05:07;100457.94;;;15.65;51.23
50105;BME280;47690;39.202;-77.198;2024-01-27T06:07:40;100455.75;;;15.53;51.20
50105;BME280;47690;39.202;-77.198;2024-01-27T06:10:11;100455.19;;;15.43;51.36
50105;BME280;47690;39.202;-77.198;2024-01-27T06:12:40;100450.31;;;15.34;51.47
50105;BME280;47690;39.202;-77.198;2024-01-27T06:15:09;100464.38;;;15.26;51.52
50105;BME280;47690;39.202;-77.198;2024-01-27T06:17:40;100462.84;;;15.19;51.60
50105;BME280;47690;39.202;-77.198;2024-01-27T06:20:11;100472.47;;;15.15;51.95
50105;BME280;47690;39.202;-77.198;2024-01-27T06:22:40;100470.19;;;15.06;51.66
50105;BME280;47690;39.202;-77.198;2024-01-27T06:25:10;100463.50;;;14.97;51.54
50105;BME280;47690;39.202;-77.198;2024-01-27T06:27:42;100465.56;;;14.86;51.87
50105;BME280;47690;39.202;-77.198;2024-01-27T06:30:18;100459.78;;;14.76;52.07
50105;BME280;47690;39.202;-77.198;2024-01-27T06:32:47;100459.97;;;14.70;52.17
50105;BME280;47690;39.202;-77.198;2024-01-27T06:35:17;100465.22;;;14.67;52.48
50105;BME280;47690;39.202;-77.198;2024-01-27T06:37:46;100459.28;;;14.63;52.44
50105;BME280;47690;39.202;-77.198;2024-01-27T06:40:18;100467.22;;;14.57;52.63
50105;BME280;47690;39.202;-77.198;2024-01-27T06:42:48;100468.28;;;14.50;52.64
50105;BME280;47690;39.202;-77.198;2024-01-27T06:45:18;100471.88;;;14.45;52.67
50105;BME280;47690;39.202;-77.198;2024-01-27T06:47:47;100472.03;;;14.39;52.80
50105;BME280;47690;39.202;-77.198;2024-01-27T06:50:16;100467.00;;;14.33;52.85
50105;BME280;47690;39.202;-77.198;2024-01-27T06:52:45;100471.44;;;14.29;52.92
50105;BME280;47690;39.202;-77.198;2024-01-27T06:55:15;100473.28;;;14.24;52.76
50105;BME280;47690;39.202;-77.198;2024-01-27T06:57:44;100470.97;;;14.13;52.74
50105;BME280;47690;39.202;-77.198;2024-01-27T07:00:13;100484.06;;;14.09;52.87
50105;BME280;47690;39.202;-77.198;2024-01-27T07:02:47;100475.59;;;14.02;52.92
50105;BME280;47690;39.202;-77.198;2024-01-27T07:05:16;100475.72;;;13.97;53.30
50105;BME280;47690;39.202;-77.198;2024-01-27T07:07:46;100484.59;;;13.87;53.17
50105;BME280;47690;39.202;-77.198;2024-01-27T07:10:15;100495.13;;;13.81;53.47
50105;BME280;47690;39.202;-77.198;2024-01-27T07:12:45;100490.94;;;13.75;53.57
50105;BME280;47690;39.202;-77.198;2024-01-27T07:15:14;100504.88;;;13.71;53.52
50105;BME280;47690;39.202;-77.198;2024-01-27T07:17:43;100502.31;;;13.68;53.53
50105;BME280;47690;39.202;-77.198;2024-01-27T07:20:12;100509.38;;;13.62;53.45
50105;BME280;47690;39.202;-77.198;2024-01-27T07:22:41;100514.69;;;13.56;53.61
50105;BME280;47690;39.202;-77.198;2024-01-27T07:25:12;100516.59;;;13.48;53.80
50105;BME280;47690;39.202;-77.198;2024-01-27T07:27:40;100519.28;;;13.42;54.04
50105;BME280;47690;39.202;-77.198;2024-01-27T07:30:11;100522.81;;;13.37;54.06
50105;BME280;47690;39.202;-77.198;2024-01-27T07:32:46;100528.91;;;13.35;54.36
50105;BME280;47690;39.202;-77.198;2024-01-27T07:35:15;100520.34;;;13.33;54.17
50105;BME280;47690;39.202;-77.198;2024-01-27T07:37:44;100521.38;;;13.25;54.21
50105;BME280;47690;39.202;-77.198;2024-01-27T07:40:14;100530.09;;;13.21;54.06
50105;BME280;47690;39.202;-77.198;2024-01-27T07:42:44;100527.56;;;13.17;54.31
50105;BME280;47690;39.202;-77.198;2024-01-27T07:45:15;100522.50;;;13.12;54.59
50105;BME280;47690;39.202;-77.198;2024-01-27T07:47:44;100525.19;;;13.07;54.34
50105;BME280;47690;39.202;-77.198;2024-01-27T07:50:13;100522.72;;;13.03;54.57
50105;BME280;47690;39.202;-77.198;2024-01-27T07:52:42;100533.16;;;12.98;54.52
50105;BME280;47690;39.202;-77.198;2024-01-27T07:55:11;100547.06;;;12.92;54.60
50105;BME280;47690;39.202;-77.198;2024-01-27T07:57:40;100535.16;;;12.85;54.31
50105;BME280;47690;39.202;-77.198;2024-01-27T08:00:11;100533.50;;;12.81;54.79
50105;BME280;47690;39.202;-77.198;2024-01-27T08:02:40;100542.13;;;12.80;54.91
50105;BME280;47690;39.202;-77.198;2024-01-27T08:05:08;100539.59;;;12.77;54.50
50105;BME280;47690;39.202;-77.198;2024-01-27T08:07:37;100539.75;;;12.69;54.48
50105;BME280;47690;39.202;-77.198;2024-01-27T08:10:06;100544.25;;;12.59;54.75
50105;BME280;47690;39.202;-77.198;2024-01-27T08:12:39;100540.06;;;12.52;54.60
50105;BME280;47690;39.202;-77.198;2024-01-27T08:15:08;100537.59;;;12.46;55.16
50105;BME280;47690;39.202;-77.198;2024-01-27T08:17:37;100534.22;;;12.42;55.23
50105;BME280;47690;39.202;-77.198;2024-01-27T08:20:07;100527.31;;;12.42;55.17
50105;BME280;47690;39.202;-77.198;2024-01-27T08:22:37;100537.69;;;12.41;55.34
50105;BME280;47690;39.202;-77.198;2024-01-27T08:25:09;100544.63;;;12.37;55.18
50105;BME280;47690;39.202;-77.198;2024-01-27T08:27:39;100548.06;;;12.38;54.55
50105;BME280;47690;39.202;-77.198;2024-01-27T08:30:08;100554.31;;;12.26;54.98
50105;BME280;47690;39.202;-77.198;2024-01-27T08:32:41;100558.72;;;12.18;55.06
50105;BME280;47690;39.202;-77.198;2024-01-27T08:35:12;100550.25;;;12.09;55.22
50105;BME280;47690;39.202;-77.198;2024-01-27T08:37:41;100552.91;;;12.08;55.30
50105;BME280;47690;39.202;-77.198;2024-01-27T08:40:09;100561.50;;;12.07;55.43
50105;BME280;47690;39.202;-77.198;2024-01-27T08:42:42;100549.50;;;12.02;55.60
50105;BME280;47690;39.202;-77.198;2024-01-27T08:45:11;100545.22;;;12.00;55.52
50105;BME280;47690;39.202;-77.198;2024-01-27T08:47:40;100545.28;;;11.97;55.62
50105;BME280;47690;39.202;-77.198;2024-01-27T08:50:13;100551.34;;;11.96;55.55
50105;BME280;47690;39.202;-77.198;2024-01-27T08:52:43;100560.81;;;11.94;55.59
50105;BME280;47690;39.202;-77.198;2024-01-27T08:55:13;100573.81;;;11.87;55.49
50105;BME280;47690;39.202;-77.198;2024-01-27T08:57:51;100583.38;;;11.82;55.88
50105;BME280;47690;39.202;-77.198;2024-01-27T09:00:20;100565.31;;;11.81;55.79
50105;BME280;47690;39.202;-77.198;2024-01-27T09:02:51;100573.06;;;11.79;55.97
50105;BME280;47690;39.202;-77.198;2024-01-27T09:05:20;100568.00;;;11.74;56.08
50105;BME280;47690;39.202;-77.198;2024-01-27T09:07:49;100573.97;;;11.77;56.02
50105;BME280;47690;39.202;-77.198;2024-01-27T09:10:18;100574.91;;;11.74;56.40
50105;BME280;47690;39.202;-77.198;2024-01-27T09:12:48;100585.22;;;11.72;56.09
50105;BME280;47690;39.202;-77.198;2024-01-27T09:15:17;100587.00;;;11.70;55.89
50105;BME280;47690;39.202;-77.198;2024-01-27T09:17:48;100585.38;;;11.61;55.66
50105;BME280;47690;39.202;-77.198;2024-01-27T09:20:19;100591.50;;;11.53;55.94
50105;BME280;47690;39.202;-77.198;2024-01-27T09:22:49;100598.50;;;11.46;56.25
50105;BME280;47690;39.202;-77.198;2024-01-27T09:25:21;100603.66;;;11.44;56.30
50105;BME280;47690;39.202;-77.198;2024-01-27T09:27:53;100608.00;;;11.41;56.51
50105;BME280;47690;39.202;-77.198;2024-01-27T09:30:26;100612.34;;;11.39;56.36
50105;BME280;47690;39.202;-77.198;2024-01-27T09:33:03;100606.38;;;11.35;56.22
50105;BME280;47690;39.202;-77.198;2024-01-27T09:35:36;100603.84;;;11.30;56.62
50105;BME280;47690;39.202;-77.198;2024-01-27T09:38:06;100621.91;;;11.29;56.41
50105;BME280;47690;39.202;-77.198;2024-01-27T09:40:41;100628.00;;;11.23;56.26
50105;BME280;47690;39.202;-77.198;2024-01-27T09:43:13;100621.16;;;11.19;56.30
50105;BME280;47690;39.202;-77.198;2024-01-27T09:45:42;100625.50;;;11.14;56.56
50105;BME280;47690;39.202;-77.198;2024-01-27T09:48:13;100635.88;;;11.11;56.23
50105;BME280;47690;39.202;-77.198;2024-01-27T09:50:45;100629.06;;;11.03;56.55
50105;BME280;47690;39.202;-77.198;2024-01-27T09:53:15;100632.53;;;11.01;56.53
50105;BME280;47690;39.202;-77.198;2024-01-27T09:55:43;100630.84;;;10.98;56.71
50105;BME280;47690;39.202;-77.198;2024-01-27T09:58:13;100645.47;;;10.98;56.94
50105;BME280;47690;39.202;-77.198;2024-01-27T10:00:43;100647.19;;;10.96;56.82
50105;BME280;47690;39.202;-77.198;2024-01-27T10:03:13;100654.97;;;10.92;56.97
50105;BME280;47690;39.202;-77.198;2024-01-27T10:05:42;100642.09;;;10.91;57.09
50105;BME280;47690;39.202;-77.198;2024-01-27T10:08:12;100641.25;;;10.89;56.94
50105;BME280;47690;39.202;-77.198;2024-01-27T10:10:42;100643.00;;;10.87;56.60
50105;BME280;47690;39.202;-77.198;2024-01-27T10:13:12;100643.88;;;10.84;56.35
50105;BME280;47690;39.202;-77.198;2024-01-27T10:15:43;100635.31;;;10.81;56.61
50105;BME280;47690;39.202;-77.198;2024-01-27T10:18:12;100630.19;;;10.79;56.54
50105;BME280;47690;39.202;-77.198;2024-01-27T10:20:48;100630.22;;;10.76;56.85
50105;BME280;47690;39.202;-77.198;2024-01-27T10:23:18;100633.69;;;10.72;56.08
50105;BME280;47690;39.202;-77.198;2024-01-27T10:25:47;100628.59;;;10.65;55.97
50105;BME280;47690;39.202;-77.198;2024-01-27T10:28:15;100640.69;;;10.57;56.48
50105;BME280;47690;39.202;-77.198;2024-01-27T10:30:45;100637.31;;;10.50;55.88
50105;BME280;47690;39.202;-77.198;2024-01-27T10:33:17;100636.50;;;10.45;56.49
50105;BME280;47690;39.202;-77.198;2024-01-27T10:35:45;100633.09;;;10.38;56.52
50105;BME280;47690;39.202;-77.198;2024-01-27T10:38:14;100637.41;;;10.35;56.55
50105;BME280;47690;39.202;-77.198;2024-01-27T10:40:44;100637.41;;;10.35;56.82
50105;BME280;47690;39.202;-77.198;2024-01-27T10:43:15;100635.72;;;10.34;56.96
50105;BME280;47690;39.202;-77.198;2024-01-27T10:45:49;100652.00;;;10.34;56.88
50105;BME280;47690;39.202;-77.198;2024-01-27T10:48:20;100646.00;;;10.31;56.81
50105;BME280;47690;39.202;-77.198;2024-01-27T10:50:50;100656.31;;;10.31;56.85
50105;BME280;47690;39.202;-77.198;2024-01-27T10:53:23;100661.47;;;10.29;56.72
50105;BME280;47690;39.202;-77.198;2024-01-27T10:55:57;100662.38;;;10.27;56.87
50105;BME280;47690;39.202;-77.198;2024-01-27T10:58:30;100666.66;;;10.24;56.80
50105;BME280;47690;39.202;-77.198;2024-01-27T11:01:03;100668.41;;;10.22;56.70
50105;BME280;47690;39.202;-77.198;2024-01-27T11:03:40;100673.53;;;10.21;57.16
50105;BME280;47690;39.202;-77.198;2024-01-27T11:06:11;100676.16;;;10.16;57.10
50105;BME280;47690;39.202;-77.198;2024-01-27T11:08:42;100671.88;;;10.14;57.07
50105;BME280;47690;39.202;-77.198;2024-01-27T11:11:11;100680.47;;;10.14;57.35
50105;BME280;47690;39.202;-77.198;2024-01-27T11:13:42;100684.75;;;10.14;57.26
50105;BME280;47690;39.202;-77.198;2024-01-27T11:16:16;100698.47;;;10.13;57.29
50105;BME280;47690;39.202;-77.198;2024-01-27T11:18:48;100693.34;;;10.11;57.25
50105;BME280;47690;39.202;-77.198;2024-01-27T11:21:18;100682.19;;;10.07;57.20
50105;BME280;47690;39.202;-77.198;2024-01-27T11:23:47;100690.78;;;10.08;57.13
50105;BME280;47690;39.202;-77.198;2024-01-27T11:26:22;100694.19;;;10.10;57.73
50105;BME280;47690;39.202;-77.198;2024-01-27T11:28:51;100696.78;;;10.10;57.82
50105;BME280;47690;39.202;-77.198;2024-01-27T11:31:21;100687.34;;;10.10;57.74
50105;BME280;47690;39.202;-77.198;2024-01-27T11:33:51;100689.06;;;10.13;57.71
50105;BME280;47690;39.202;-77.198;2024-01-27T11:36:23;100698.47;;;10.13;58.02
50105;BME280;47690;39.202;-77.198;2024-01-27T11:38:53;100707.91;;;10.15;58.02
50105;BME280;47690;39.202;-77.198;2024-01-27T11:41:35;100711.31;;;10.19;57.95
50105;BME280;47690;39.202;-77.198;2024-01-27T11:44:12;100715.63;;;10.17;57.96
50105;BME280;47690;39.202;-77.198;2024-01-27T11:46:44;100713.94;;;10.16;58.29
50105;BME280;47690;39.202;-77.198;2024-01-27T11:49:18;100723.31;;;10.20;58.59
50105;BME280;47690;39.202;-77.198;2024-01-27T11:51:49;100725.03;;;10.21;58.10
50105;BME280;47690;39.202;-77.198;2024-01-27T11:54:19;100730.19;;;10.24;58.16
50105;BME280;47690;39.202;-77.198;2024-01-27T11:56:48;100728.44;;;10.24;58.67
50105;BME280;47690;39.202;-77.198;2024-01-27T11:59:17;100740.44;;;10.27;58.73
50105;BME280;47690;39.202;-77.198;2024-01-27T12:01:47;100732.72;;;10.29;58.74
50105;BME280;47690;39.202;-77.198;2024-01-27T12:04:16;100736.13;;;10.29;58.43
50105;BME280;47690;39.202;-77.198;2024-01-27T12:06:47;100740.44;;;10.30;58.49
50105;BME280;47690;39.202;-77.198;2024-01-27T12:09:16;100743.03;;;10.30;58.35
50105;BME280;47690;39.202;-77.198;2024-01-27T12:11:46;100745.59;;;10.30;58.36
50105;BME280;47690;39.202;-77.198;2024-01-27T12:14:17;100745.59;;;10.30;58.77
50105;BME280;47690;39.202;-77.198;2024-01-27T12:16:46;100740.44;;;10.29;58.73
50105;BME280;47690;39.202;-77.198;2024-01-27T12:19:15;100750.75;;;10.29;59.17
50105;BME280;47690;39.202;-77.198;2024-01-27T12:21:49;100750.72;;;10.32;58.81
50105;BME280;47690;39.202;-77.198;2024-01-27T12:24:18;100745.56;;;10.32;59.16
50105;BME280;47690;39.202;-77.198;2024-01-27T12:26:49;100756.75;;;10.34;58.93
50105;BME280;47690;39.202;-77.198;2024-01-27T12:29:20;100755.00;;;10.34;59.32
50105;BME280;47690;39.202;-77.198;2024-01-27T12:31:50;100764.44;;;10.37;59.10
50105;BME280;47690;39.202;-77.198;2024-01-27T12:34:21;100761.00;;;10.38;59.28
50105;BME280;47690;39.202;-77.198;2024-01-27T12:36:52;100751.56;;;10.38;59.37
50105;BME280;47690;39.202;-77.198;2024-01-27T12:39:26;100758.41;;;10.39;59.14
50105;BME280;47690;39.202;-77.198;2024-01-27T12:41:54;100744.66;;;10.41;59.60
50105;BME280;47690;39.202;-77.198;2024-01-27T12:44:23;100748.94;;;10.42;59.60